Time;durP1;ratioP1;P1;durP2;ratioP2;P2;SDS_P1;SDS_P2;PMS_P1;PMS_P2;Temp;Humidity;BMP_temperature;BMP_pressure;BME280_temperature;BME280_humidity;BME280_pressure;Samples;Min_cycle;Max_cycle;Signal;HPM_P1;HPM_P2
2023/06/26 03:01:55;;;;;;;;;;;22.20;99.90;;;;;;6263693;22;19915;-74
2023/06/26 03:04:21;;;;;;;;;;;22.10;99.90;;;;;;6274839;22;19911;-75
2023/06/26 03:06:47;;;;;;;;;;;22.00;99.90;;;;;;6277126;22;19918;-74
2023/06/26 03:09:12;;;;;;;;;;;22.00;99.90;;;;;;6249700;22;20064;-76
2023/06/26 03:11:38;;;;;;;;;;;21.90;99.90;;;;;;6250033;22;19911;-74
2023/06/26 03:14:04;;;;;;;;;;;21.90;99.90;;;;;;6248608;22;20312;-74
2023/06/26 03:16:29;;;;;;;;;;;21.80;99.90;;;;;;6249606;22;19911;-75
2023/06/26 03:18:55;;;;;;;;;;;21.80;99.90;;;;;;6249696;22;19911;-75
2023/06/26 03:21:21;;;;;;;;;;;21.70;99.90;;;;;;6224166;22;19989;-74
2023/06/26 03:23:46;;;;;;;;;;;21.70;99.90;;;;;;6249528;22;19951;-74
2023/06/26 03:26:14;;;;;;;;;;;21.60;99.90;;;;;;6249610;22;19911;-75
2023/06/26 03:28:40;;;;;;;;;;;21.60;99.90;;;;;;6277085;22;19918;-75
2023/06/26 03:31:05;;;;;;;;;;;21.60;99.90;;;;;;6249769;22;19911;-74
2023/06/26 03:33:31;;;;;;;;;;;21.50;99.90;;;;;;6276799;22;19915;-74
2023/06/26 03:35:57;;;;;;;;;;;21.50;99.90;;;;;;6277025;22;20247;-73
2023/06/26 03:38:23;;;;;;;;;;;21.60;99.90;;;;;;6249341;22;20064;-76
2023/06/26 03:40:49;;;;;;;;;;;21.50;99.90;;;;;;6249507;22;19911;-74
2023/06/26 03:43:15;;;;;;;;;;;21.50;99.90;;;;;;6249693;22;19918;-74
2023/06/26 03:45:40;;;;;;;;;;;21.50;99.90;;;;;;6224323;22;19917;-73
2023/06/26 03:48:07;;;;;;;;;;;21.40;99.90;;;;;;6249609;22;19911;-75
2023/06/26 03:50:33;;;;;;;;;;;21.40;99.90;;;;;;6249529;22;19958;-75
2023/06/26 03:52:59;;;;;;;;;;;21.40;99.90;;;;;;6276976;22;19993;-74
2023/06/26 03:55:24;;;;;;;;;;;21.40;99.90;;;;;;6249673;22;19985;-75
2023/06/26 03:57:50;;;;;;;;;;;21.40;99.90;;;;;;6249547;22;19982;-75
2023/06/26 04:00:16;;;;;;;;;;;21.40;99.90;;;;;;6250611;22;20232;-75
2023/06/26 04:02:41;;;;;;;;;;;21.40;99.90;;;;;;6278554;22;19960;-75
2023/06/26 04:05:07;;;;;;;;;;;21.30;99.90;;;;;;6251241;22;19911;-73
2023/06/26 04:07:32;;;;;;;;;;;21.30;99.90;;;;;;6225926;22;19934;-75
2023/06/26 04:09:58;;;;;;;;;;;21.20;99.90;;;;;;6278729;22;19918;-75
2023/06/26 04:12:23;;;;;;;;;;;21.20;99.90;;;;;;6251107;22;19919;-74
2023/06/26 04:14:49;;;;;;;;;;;21.20;99.90;;;;;;6251217;22;19918;-74
2023/06/26 04:17:14;;;;;;;;;;;21.10;99.90;;;;;;6278694;22;19947;-74
2023/06/26 04:19:40;;;;;;;;;;;21.10;99.90;;;;;;6251214;22;19966;-75
2023/06/26 04:22:06;;;;;;;;;;;21.00;99.90;;;;;;6226230;22;19915;-74
2023/06/26 04:24:31;;;;;;;;;;;20.90;99.90;;;;;;6278449;22;19917;-75
2023/06/26 04:26:57;;;;;;;;;;;20.90;99.90;;;;;;6251040;22;19911;-74
2023/06/26 04:29:25;;;;;;;;;;;20.80;99.90;;;;;;6250938;22;19915;-74
2023/06/26 04:31:51;;;;;;;;;;;20.90;99.90;;;;;;6278131;22;19978;-75
2023/06/26 04:34:16;;;;;;;;;;;20.80;99.90;;;;;;6250897;22;20311;-75
2023/06/26 04:36:47;;;;;;;;;;;20.80;99.90;;;;;;6251027;22;19918;-75
2023/06/26 04:39:14;;;;;;;;;;;20.70;99.90;;;;;;6278931;22;19915;-73
2023/06/26 04:41:40;;;;;;;;;;;20.70;99.90;;;;;;6278225;22;19972;-74
2023/06/26 04:44:06;;;;;;;;;;;20.70;99.90;;;;;;6251074;22;20287;-74
2023/06/26 04:46:31;;;;;;;;;;;20.60;99.90;;;;;;6248502;22;20276;-72
2023/06/26 04:48:57;;;;;;;;;;;20.60;99.90;;;;;;6224828;22;20352;-74
2023/06/26 04:51:28;;;;;;;;;;;20.60;99.90;;;;;;6225220;22;19915;-74
2023/06/26 04:53:54;;;;;;;;;;;20.60;99.90;;;;;;6277685;22;20002;-72
2023/06/26 04:56:19;;;;;;;;;;;20.50;99.90;;;;;;6277127;22;19938;-75
2023/06/26 04:58:45;;;;;;;;;;;20.50;99.90;;;;;;6250716;22;19937;-75
2023/06/26 05:01:13;;;;;;;;;;;20.50;99.90;;;;;;6276819;22;19918;-76
2023/06/26 05:03:39;;;;;;;;;;;20.40;99.90;;;;;;6250663;22;19911;-74
2023/06/26 05:06:04;;;;;;;;;;;20.40;99.90;;;;;;6277608;22;19934;-76
2023/06/26 05:08:30;;;;;;;;;;;20.40;99.90;;;;;;6249531;22;19911;-75
2023/06/26 05:10:58;;;;;;;;;;;20.40;99.90;;;;;;6249268;22;19957;-76
2023/06/26 05:13:24;;;;;;;;;;;20.40;99.90;;;;;;6250295;22;20319;-76
2023/06/26 05:15:50;;;;;;;;;;;20.40;99.90;;;;;;6277273;22;19911;-75
2023/06/26 05:18:16;;;;;;;;;;;20.40;99.90;;;;;;6225324;22;19961;-74
2023/06/26 05:20:42;;;;;;;;;;;20.30;99.90;;;;;;6277695;22;19911;-75
2023/06/26 05:23:07;;;;;;;;;;;20.30;99.90;;;;;;6225817;22;19911;-75
2023/06/26 05:25:36;;;;;;;;;;;20.30;99.90;;;;;;6277891;22;20217;-75
2023/06/26 05:28:02;;;;;;;;;;;20.20;99.90;;;;;;6250375;22;19918;-75
2023/06/26 05:30:27;;;;;;;;;;;20.20;99.90;;;;;;6250360;22;20327;-75
2023/06/26 05:32:54;;;;;;;;;;;20.10;99.90;;;;;;6250394;22;19965;-75
2023/06/26 05:35:20;;;;;;;;;;;20.10;99.90;;;;;;6250390;22;19954;-75
2023/06/26 05:37:47;;;;;;;;;;;20.10;99.90;;;;;;6277580;22;19918;-74
2023/06/26 05:40:13;;;;;;;;;;;20.10;99.90;;;;;;6276600;22;20317;-74
2023/06/26 05:42:38;;;;;;;;;;;20.10;99.90;;;;;;6249957;22;19912;-75
2023/06/26 05:45:04;;;;;;;;;;;20.10;99.90;;;;;;6224364;22;19911;-74
2023/06/26 05:47:30;;;;;;;;;;;20.10;99.90;;;;;;6250812;22;19954;-74
2023/06/26 05:49:55;;;;;;;;;;;20.10;99.90;;;;;;6226643;22;20330;-74
2023/06/26 05:52:21;;;;;;;;;;;20.10;99.90;;;;;;6251384;22;19919;-73
2023/06/26 05:54:47;;;;;;;;;;;20.00;99.90;;;;;;6278280;22;19911;-75
2023/06/26 05:57:13;;;;;;;;;;;19.90;99.90;;;;;;6250607;22;19917;-75
2023/06/26 05:59:40;;;;;;;;;;;20.00;99.90;;;;;;6250471;22;19994;-75
2023/06/26 06:02:05;;;;;;;;;;;20.00;99.90;;;;;;6277249;22;20186;-74
2023/06/26 06:04:31;;;;;;;;;;;19.90;99.90;;;;;;6250205;22;19954;-74
2023/06/26 06:06:57;;;;;;;;;;;20.00;99.90;;;;;;6250293;22;19958;-73
2023/06/26 06:09:22;;;;;;;;;;;20.00;99.90;;;;;;6277120;22;19919;-75
2023/06/26 06:11:48;;;;;;;;;;;20.10;99.90;;;;;;6250090;22;19919;-75
2023/06/26 06:14:13;;;;;;;;;;;20.10;99.90;;;;;;6250074;22;19951;-73
2023/06/26 06:16:39;;;;;;;;;;;20.10;99.90;;;;;;6250184;22;19911;-74
2023/06/26 06:19:06;;;;;;;;;;;20.10;99.90;;;;;;6250012;22;19915;-75
2023/06/26 06:21:32;;;;;;;;;;;20.00;99.90;;;;;;6250302;22;19911;-74
2023/06/26 06:23:57;;;;;;;;;;;20.10;99.90;;;;;;6250039;22;19996;-74
2023/06/26 06:26:23;;;;;;;;;;;20.10;99.90;;;;;;6277204;22;19921;-75
2023/06/26 06:28:49;;;;;;;;;;;20.10;99.90;;;;;;6249850;22;19960;-74
2023/06/26 06:31:14;;;;;;;;;;;20.10;99.90;;;;;;6276926;22;19999;-74
2023/06/26 06:33:40;;;;;;;;;;;20.20;99.90;;;;;;6277985;22;19922;-74
2023/06/26 06:36:05;;;;;;;;;;;20.20;99.90;;;;;;6248555;22;19911;-75
2023/06/26 06:38:31;;;;;;;;;;;20.20;99.90;;;;;;6249453;22;19918;-75
2023/06/26 06:41:00;;;;;;;;;;;20.20;99.90;;;;;;6249978;22;19911;-75
2023/06/26 06:43:25;;;;;;;;;;;20.20;99.90;;;;;;6249932;22;19911;-74
2023/06/26 06:45:51;;;;;;;;;;;20.20;99.90;;;;;;6249945;22;19915;-73
2023/06/26 06:48:16;;;;;;;;;;;20.30;99.90;;;;;;6250077;22;19918;-74
2023/06/26 06:50:42;;;;;;;;;;;20.30;99.90;;;;;;6249981;22;19918;-74
2023/06/26 06:53:08;;;;;;;;;;;20.30;99.90;;;;;;6277324;22;19938;-73
2023/06/26 06:55:33;;;;;;;;;;;20.40;99.90;;;;;;6249804;22;20221;-73
2023/06/26 06:57:59;;;;;;;;;;;20.40;99.90;;;;;;6277056;22;19918;-73
2023/06/26 07:00:24;;;;;;;;;;;20.40;99.90;;;;;;6249677;22;19917;-74
2023/06/26 07:02:50;;;;;;;;;;;20.50;99.90;;;;;;6250087;22;19918;-73
2023/06/26 07:05:16;;;;;;;;;;;20.50;99.90;;;;;;6249794;22;19911;-74
2023/06/26 07:07:41;;;;;;;;;;;20.60;99.90;;;;;;6277572;22;19911;-75
2023/06/26 07:10:08;;;;;;;;;;;20.60;99.90;;;;;;6249884;22;20236;-74
2023/06/26 07:12:34;;;;;;;;;;;20.60;99.90;;;;;;6277493;22;19996;-74
2023/06/26 07:15:00;;;;;;;;;;;20.70;99.90;;;;;;6249768;22;20291;-74
2023/06/26 07:17:26;;;;;;;;;;;20.80;99.90;;;;;;6276969;22;20218;-74
2023/06/26 07:19:51;;;;;;;;;;;20.80;99.90;;;;;;6249748;22;19922;-73
2023/06/26 07:22:20;;;;;;;;;;;20.80;99.90;;;;;;6249708;22;19918;-73
2023/06/26 07:24:45;;;;;;;;;;;20.80;99.90;;;;;;6276949;22;19911;-74
2023/06/26 07:27:11;;;;;;;;;;;20.90;99.90;;;;;;6249827;22;20351;-74
2023/06/26 07:29:37;;;;;;;;;;;20.80;99.90;;;;;;6249777;22;20252;-74
2023/06/26 07:32:02;;;;;;;;;;;20.70;99.90;;;;;;6277122;22;20359;-74
2023/06/26 07:34:28;;;;;;;;;;;20.70;99.90;;;;;;6251207;22;19965;-74
2023/06/26 07:36:53;;;;;;;;;;;20.70;99.90;;;;;;6251517;22;19917;-73
2023/06/26 07:39:19;;;;;;;;;;;20.80;99.90;;;;;;6279330;22;20248;-74
2023/06/26 07:41:44;;;;;;;;;;;20.80;99.90;;;;;;6226226;22;19911;-74
2023/06/26 07:44:10;;;;;;;;;;;20.80;99.90;;;;;;6279351;22;20189;-74
2023/06/26 07:46:35;;;;;;;;;;;20.70;99.90;;;;;;6251783;22;20222;-75
2023/06/26 07:49:01;;;;;;;;;;;20.80;99.90;;;;;;6251501;22;20320;-74
2023/06/26 07:51:26;;;;;;;;;;;20.90;99.90;;;;;;6278877;22;20236;-74
2023/06/26 07:53:52;;;;;;;;;;;20.80;99.90;;;;;;6251459;22;19919;-73
2023/06/26 07:56:17;;;;;;;;;;;20.80;99.90;;;;;;6251431;22;19911;-73
2023/06/26 07:58:43;;;;;;;;;;;20.80;99.90;;;;;;6252373;22;19915;-73
2023/06/26 08:01:09;;;;;;;;;;;20.90;99.90;;;;;;6251274;22;20029;-75
2023/06/26 08:03:34;;;;;;;;;;;21.10;99.90;;;;;;6278441;22;19943;-74
2023/06/26 08:06:00;;;;;;;;;;;21.10;99.90;;;;;;6251370;22;20002;-73
2023/06/26 08:08:25;;;;;;;;;;;20.90;99.90;;;;;;6278364;22;19922;-73
2023/06/26 08:10:51;;;;;;;;;;;20.80;99.90;;;;;;6251204;22;19958;-74
2023/06/26 08:13:16;;;;;;;;;;;20.80;99.90;;;;;;6279044;22;19915;-73
2023/06/26 08:15:42;;;;;;;;;;;20.90;99.90;;;;;;6278659;22;19918;-74
2023/06/26 08:18:07;;;;;;;;;;;20.90;99.90;;;;;;6278911;22;19917;-74
2023/06/26 08:20:35;;;;;;;;;;;21.10;99.90;;;;;;6251165;22;19964;-74
2023/06/26 08:23:01;;;;;;;;;;;21.10;99.90;;;;;;6251286;22;19918;-74
2023/06/26 08:25:26;;;;;;;;;;;21.10;99.90;;;;;;6251195;22;19911;-75
2023/06/26 08:27:53;;;;;;;;;;;21.00;99.90;;;;;;6278743;22;19911;-75
2023/06/26 08:30:19;;;;;;;;;;;21.10;99.90;;;;;;6278370;22;19911;-73
2023/06/26 08:32:44;;;;;;;;;;;21.10;99.90;;;;;;6251050;22;20337;-74
2023/06/26 08:35:10;;;;;;;;;;;21.10;99.90;;;;;;6278217;22;19914;-74
2023/06/26 08:37:35;;;;;;;;;;;21.00;99.90;;;;;;6251919;22;19911;-75
2023/06/26 08:40:01;;;;;;;;;;;21.00;99.90;;;;;;6251082;22;19918;-73
2023/06/26 08:42:27;;;;;;;;;;;21.00;99.90;;;;;;6278537;22;19918;-75
2023/06/26 08:44:52;;;;;;;;;;;21.00;99.90;;;;;;6277825;22;19911;-74
2023/06/26 08:47:18;;;;;;;;;;;21.00;99.90;;;;;;6278990;22;19918;-73
2023/06/26 08:49:51;;;;;;;;;;;21.00;99.90;;;;;;6251017;22;19942;-75
2023/06/26 08:52:19;;;;;;;;;;;20.80;99.90;;;;;;6278175;22;19935;-73
2023/06/26 08:54:52;;;;;;;;;;;20.70;99.90;;;;;;6250986;22;19939;-74
2023/06/26 08:57:19;;;;;;;;;;;20.70;99.90;;;;;;6250775;22;20321;-74
2023/06/26 08:59:45;;;;;;;;;;;20.90;99.90;;;;;;6250871;22;19911;-74
2023/06/26 09:02:11;;;;;;;;;;;21.10;99.90;;;;;;6250724;22;19938;-74
2023/06/26 09:04:36;;;;;;;;;;;21.10;99.90;;;;;;6278220;22;19911;-74
2023/06/26 09:07:02;;;;;;;;;;;20.80;99.90;;;;;;6277910;22;19911;-74
2023/06/26 09:09:28;;;;;;;;;;;21.00;99.90;;;;;;6278248;22;20237;-75
2023/06/26 09:11:55;;;;;;;;;;;21.20;99.90;;;;;;6250611;22;19915;-75
2023/06/26 09:14:21;;;;;;;;;;;21.30;99.90;;;;;;6250658;22;20298;-74
2023/06/26 09:16:49;;;;;;;;;;;21.30;99.90;;;;;;6278124;22;19950;-73
2023/06/26 09:19:15;;;;;;;;;;;21.20;99.90;;;;;;6277920;22;19922;-74
2023/06/26 09:21:41;;;;;;;;;;;21.10;99.90;;;;;;6278429;22;19911;-73
2023/06/26 09:24:08;;;;;;;;;;;21.20;99.90;;;;;;6250525;22;20324;-74
2023/06/26 09:26:38;;;;;;;;;;;21.20;99.90;;;;;;6277721;22;20288;-74
2023/06/26 09:29:04;;;;;;;;;;;21.20;99.90;;;;;;6250559;22;19974;-73
2023/06/26 09:31:30;;;;;;;;;;;21.50;99.90;;;;;;6277547;22;19934;-75
2023/06/26 09:33:58;;;;;;;;;;;21.40;99.90;;;;;;6250374;22;19915;-75
2023/06/26 09:36:26;;;;;;;;;;;21.50;99.90;;;;;;6250408;22;20327;-75
2023/06/26 09:38:52;;;;;;;;;;;21.70;99.90;;;;;;6277579;22;19923;-75
2023/06/26 09:41:17;;;;;;;;;;;21.80;99.90;;;;;;6250790;22;19915;-74
2023/06/26 09:43:49;;;;;;;;;;;21.60;99.90;;;;;;6278024;22;19915;-74
2023/06/26 09:46:16;;;;;;;;;;;21.80;99.90;;;;;;6250314;22;19918;-73
2023/06/26 09:48:42;;;;;;;;;;;21.50;99.90;;;;;;6251656;22;19915;-73
2023/06/26 09:51:07;;;;;;;;;;;21.40;99.90;;;;;;6277891;22;19911;-73
2023/06/26 09:53:35;;;;;;;;;;;21.30;99.90;;;;;;6250335;22;19926;-76
2023/06/26 09:56:05;;;;;;;;;;;21.30;99.90;;;;;;6278014;22;19960;-74
2023/06/26 09:58:31;;;;;;;;;;;21.50;99.90;;;;;;6277074;22;20324;-75
2023/06/26 10:00:56;;;;;;;;;;;21.50;99.90;;;;;;6277428;22;20248;-76
2023/06/26 10:03:22;;;;;;;;;;;21.40;99.90;;;;;;6250174;22;19986;-74
2023/06/26 10:05:48;;;;;;;;;;;21.50;99.90;;;;;;6225240;22;20234;-74
2023/06/26 10:08:14;;;;;;;;;;;21.70;99.90;;;;;;6250230;22;19915;-75
2023/06/26 10:10:40;;;;;;;;;;;22.00;99.90;;;;;;6277465;22;20029;-75
2023/06/26 10:13:13;;;;;;;;;;;22.20;99.90;;;;;;6249964;22;19958;-73
2023/06/26 10:15:39;;;;;;;;;;;22.40;99.90;;;;;;6277626;22;19934;-76
2023/06/26 10:18:05;;;;;;;;;;;22.30;99.90;;;;;;6250039;22;19911;-76
2023/06/26 10:20:31;;;;;;;;;;;22.30;99.90;;;;;;6277027;22;20283;-73
2023/06/26 10:22:59;;;;;;;;;;;22.30;99.90;;;;;;6250026;22;19911;-75
2023/06/26 10:25:26;;;;;;;;;;;22.30;99.90;;;;;;6249940;22;19911;-73
2023/06/26 10:27:54;;;;;;;;;;;22.20;99.90;;;;;;6277819;22;19914;-74
2023/06/26 10:30:21;;;;;;;;;;;22.10;99.90;;;;;;6277101;22;19911;-74
2023/06/26 10:32:48;;;;;;;;;;;22.30;99.90;;;;;;6277336;22;20234;-74
2023/06/26 10:35:14;;;;;;;;;;;22.40;99.90;;;;;;6277161;22;19915;-76
2023/06/26 10:37:46;;;;;;;;;;;22.30;99.90;;;;;;6249907;22;19911;-74
2023/06/26 10:40:13;;;;;;;;;;;22.30;99.90;;;;;;6249906;22;19911;-75
2023/06/26 10:42:39;;;;;;;;;;;22.40;99.90;;;;;;6276962;22;19918;-75
2023/06/26 10:45:13;;;;;;;;;;;22.30;99.90;;;;;;6277116;22;19917;-74
2023/06/26 10:47:40;;;;;;;;;;;22.30;99.90;;;;;;6249938;22;19918;-75
2023/06/26 10:50:25;;;;;;;;;;;22.30;99.90;;;;;;6249999;22;19919;-75
2023/06/26 10:53:09;;;;;;;;;;;22.30;99.90;;;;;;6276960;22;19919;-73
2023/06/26 10:55:40;;;;;;;;;;;22.30;99.90;;;;;;6276882;22;19915;-75
2023/06/26 10:58:26;;;;;;;;;;;22.00;99.90;;;;;;6249762;22;19934;-75
2023/06/26 11:00:52;;;;;;;;;;;21.90;99.90;;;;;;6249803;22;19915;-73
2023/06/26 11:03:24;;;;;;;;;;;22.20;99.90;;;;;;6249894;22;20348;-74
2023/06/26 11:06:08;;;;;;;;;;;22.20;99.90;;;;;;6249965;22;19960;-76
2023/06/26 11:08:53;;;;;;;;;;;22.30;99.90;;;;;;6278259;22;19915;-75
2023/06/26 11:11:19;;;;;;;;;;;22.10;99.90;;;;;;6279349;22;19919;-73
2023/06/26 11:13:46;;;;;;;;;;;22.20;99.90;;;;;;6251707;22;20244;-76
2023/06/26 11:16:12;;;;;;;;;;;22.00;99.90;;;;;;6279357;22;19911;-73
2023/06/26 11:18:38;;;;;;;;;;;22.10;99.90;;;;;;6251910;22;20240;-75
2023/06/26 11:21:14;;;;;;;;;;;22.30;99.90;;;;;;6251765;22;19990;-73
2023/06/26 11:23:40;;;;;;;;;;;22.30;99.90;;;;;;6279116;22;19911;-73
2023/06/26 11:26:32;;;;;;;;;;;22.40;99.90;;;;;;6251776;22;20325;-71
2023/06/26 11:28:57;;;;;;;;;;;22.60;99.90;;;;;;6271284;22;19918;-74
2023/06/26 11:31:30;;;;;;;;;;;22.80;99.90;;;;;;6226662;22;19939;-75
2023/06/26 11:33:56;;;;;;;;;;;22.80;99.90;;;;;;6252654;22;19922;-75
2023/06/26 11:36:26;;;;;;;;;;;22.60;99.90;;;;;;6226366;22;19919;-74
2023/06/26 11:39:01;;;;;;;;;;;22.70;99.90;;;;;;6251711;22;19911;-74
2023/06/26 11:41:28;;;;;;;;;;;22.80;99.90;;;;;;6251623;22;20244;-73
2023/06/26 11:43:54;;;;;;;;;;;22.80;99.90;;;;;;6279058;22;19922;-75
2023/06/26 11:46:20;;;;;;;;;;;22.50;99.90;;;;;;6278691;22;19911;-75
2023/06/26 11:48:46;;;;;;;;;;;22.10;99.90;;;;;;6251590;22;19911;-72
2023/06/26 11:51:15;;;;;;;;;;;22.10;99.90;;;;;;6278465;22;19953;-73
2023/06/26 11:53:41;;;;;;;;;;;22.30;99.90;;;;;;6278496;22;19968;-74
2023/06/26 11:56:08;;;;;;;;;;;22.40;99.90;;;;;;6278641;22;20348;-75
2023/06/26 11:58:33;;;;;;;;;;;22.20;99.90;;;;;;6278804;22;20261;-75
2023/06/26 12:00:59;;;;;;;;;;;22.30;99.90;;;;;;6278236;22;19911;-75
2023/06/26 12:03:25;;;;;;;;;;;22.00;99.90;;;;;;6251404;22;19978;-72
2023/06/26 12:05:52;;;;;;;;;;;22.00;99.90;;;;;;6251413;22;19915;-74
2023/06/26 12:08:18;;;;;;;;;;;22.10;99.90;;;;;;6278430;22;19911;-74
2023/06/26 12:10:44;;;;;;;;;;;21.90;99.90;;;;;;6251231;22;19938;-74
2023/06/26 12:13:10;;;;;;;;;;;21.80;99.90;;;;;;6251347;22;19915;-73
2023/06/26 12:15:36;;;;;;;;;;;22.00;99.90;;;;;;6278452;22;19911;-75
2023/06/26 12:18:07;;;;;;;;;;;21.90;99.90;;;;;;6251385;22;19933;-74
2023/06/26 12:20:33;;;;;;;;;;;22.00;99.90;;;;;;6278475;22;19961;-74
2023/06/26 12:22:58;;;;;;;;;;;22.10;99.90;;;;;;6278430;22;19911;-75
2023/06/26 12:25:24;;;;;;;;;;;22.30;99.90;;;;;;6251275;22;20282;-74
2023/06/26 12:27:49;;;;;;;;;;;22.10;99.90;;;;;;6251242;22;20364;-74
2023/06/26 12:30:15;;;;;;;;;;;22.10;99.90;;;;;;6251096;22;20244;-74
2023/06/26 12:32:44;;;;;;;;;;;22.00;99.90;;;;;;6251089;22;19919;-73
2023/06/26 12:35:10;;;;;;;;;;;22.20;99.90;;;;;;6251010;22;19911;-75
2023/06/26 12:37:36;;;;;;;;;;;22.30;99.90;;;;;;6251069;22;19918;-74
2023/06/26 12:40:05;;;;;;;;;;;22.20;99.90;;;;;;6278152;22;19911;-73
2023/06/26 12:42:33;;;;;;;;;;;22.20;99.90;;;;;;6250952;22;20222;-74
2023/06/26 12:44:58;;;;;;;;;;;22.10;99.90;;;;;;6279195;22;19911;-76
2023/06/26 12:47:27;;;;;;;;;;;22.10;99.90;;;;;;6251092;22;19943;-76
2023/06/26 12:49:53;;;;;;;;;;;22.00;99.90;;;;;;6278425;22;19922;-72
2023/06/26 12:52:19;;;;;;;;;;;21.70;99.90;;;;;;6252311;22;19911;-74
2023/06/26 12:54:46;;;;;;;;;;;21.40;99.90;;;;;;6278778;22;19923;-75
2023/06/26 12:57:13;;;;;;;;;;;21.30;99.90;;;;;;6278374;22;19960;-74
2023/06/26 12:59:39;;;;;;;;;;;21.40;99.90;;;;;;6278073;22;19911;-74
2023/06/26 13:02:05;;;;;;;;;;;21.40;99.90;;;;;;6250731;22;19911;-74
2023/06/26 13:04:31;;;;;;;;;;;21.40;99.90;;;;;;6250911;22;20237;-74
2023/06/26 13:06:57;;;;;;;;;;;21.50;99.90;;;;;;6277907;22;20354;-75
2023/06/26 13:09:23;;;;;;;;;;;21.40;99.90;;;;;;6250853;22;19934;-75
2023/06/26 13:11:49;;;;;;;;;;;21.60;99.90;;;;;;6277995;22;20290;-73
2023/06/26 13:14:15;;;;;;;;;;;21.40;99.90;;;;;;6250803;22;19994;-75
2023/06/26 13:16:40;;;;;;;;;;;21.30;99.90;;;;;;6250851;22;20233;-74
2023/06/26 13:19:06;;;;;;;;;;;21.10;99.90;;;;;;6277741;22;19968;-73
2023/06/26 13:21:32;;;;;;;;;;;21.20;99.90;;;;;;6250620;22;19919;-75
2023/06/26 13:23:59;;;;;;;;;;;21.20;99.90;;;;;;6278108;22;19946;-73
2023/06/26 13:26:25;;;;;;;;;;;21.40;99.90;;;;;;6250973;22;19960;-74
2023/06/26 13:28:51;;;;;;;;;;;21.20;99.90;;;;;;6250556;22;19934;-75
2023/06/26 13:31:16;;;;;;;;;;;21.40;99.90;;;;;;6277581;22;20336;-73
2023/06/26 13:33:42;;;;;;;;;;;21.20;99.90;;;;;;6250405;22;19922;-74
2023/06/26 13:36:08;;;;;;;;;;;21.20;99.90;;;;;;6251221;22;19911;-73
2023/06/26 13:38:33;;;;;;;;;;;21.20;99.90;;;;;;6250347;22;19922;-75
2023/06/26 15:11:01;;;;;;;7.65;1.98;;;22.00;99.90;;;;;;5111479;27;20383;-71
2023/06/26 15:13:27;;;;;;;7.93;2.03;;;21.90;99.90;;;;;;5092419;28;20048;-73
2023/06/26 15:15:53;;;;;;;7.30;2.25;;;22.10;99.90;;;;;;5119198;28;20036;-75
2023/06/26 15:18:18;;;;;;;6.47;1.60;;;21.90;99.90;;;;;;5072465;28;20045;-73
2023/06/26 15:20:44;;;;;;;6.72;1.65;;;21.80;99.90;;;;;;5072475;28;20040;-74
2023/06/26 15:23:09;;;;;;;11.43;2.05;;;22.00;99.90;;;;;;5072092;28;20044;-74
2023/06/26 15:25:36;;;;;;;5.00;1.58;;;22.10;99.90;;;;;;5071950;28;20052;-78
2023/06/26 15:28:06;;;;;;;5.68;1.58;;;22.00;99.90;;;;;;5091014;28;20044;-74
2023/06/26 15:30:32;;;;;;;7.20;1.85;;;22.10;99.90;;;;;;5071822;28;20048;-74
2023/06/26 15:32:57;;;;;;;7.47;2.10;;;22.30;99.90;;;;;;5071746;28;20071;-74
2023/06/26 15:35:23;;;;;;;6.00;1.88;;;22.50;99.90;;;;;;5071606;28;20078;-74
2023/06/26 15:37:49;;;;;;;6.50;1.55;;;22.70;99.90;;;;;;5071917;28;20047;-74
2023/06/26 15:40:15;;;;;;;6.93;2.20;;;22.60;99.90;;;;;;5072361;28;20382;-74
2023/06/26 15:42:48;;;;;;;7.35;1.58;;;22.40;99.90;;;;;;5071805;28;20508;-73
2023/06/26 15:45:15;;;;;;;5.57;1.48;;;22.30;99.90;;;;;;5054828;28;20040;-74
2023/06/26 15:47:41;;;;;;;8.75;1.42;;;22.20;99.90;;;;;;5054765;28;20516;-75
2023/06/26 15:50:10;;;;;;;9.25;1.60;;;22.10;99.90;;;;;;5071202;28;20041;-74
2023/06/26 15:52:37;;;;;;;4.32;1.65;;;22.10;99.90;;;;;;5071348;28;20131;-74
2023/06/26 15:55:03;;;;;;;7.57;1.30;;;22.00;99.90;;;;;;5071355;28;20048;-75
2023/06/26 15:57:31;;;;;;;5.18;1.35;;;22.10;99.90;;;;;;5071134;28;20051;-75
2023/06/26 15:59:57;;;;;;;8.10;1.88;;;22.20;99.90;;;;;;5104944;28;20040;-75
2023/06/26 16:02:23;;;;;;;6.90;1.75;;;22.20;99.90;;;;;;5071289;28;20040;-75
2023/06/26 16:04:49;;;;;;;5.53;1.40;;;22.20;99.90;;;;;;5071036;28;20378;-75
2023/06/26 16:07:14;;;;;;;3.03;1.50;;;22.10;99.90;;;;;;5050032;28;20028;-75
2023/06/26 16:09:40;;;;;;;9.75;1.55;;;22.10;99.90;;;;;;5084196;28;20077;-73
2023/06/26 16:12:06;;;;;;;4.45;1.35;;;22.00;99.90;;;;;;5037535;28;20119;-75
2023/06/26 16:14:31;;;;;;;6.22;1.35;;;21.90;99.90;;;;;;5037729;28;20106;-75
2023/06/26 16:16:57;;;;;;;7.20;1.48;;;22.00;99.90;;;;;;5037769;28;20037;-74
2023/06/26 16:19:23;;;;;;;7.13;1.90;;;22.10;99.90;;;;;;5054164;28;20482;-73
2023/06/26 16:21:48;;;;;;;4.47;1.60;;;22.20;99.90;;;;;;5037528;28;20575;-73
2023/06/26 16:24:14;;;;;;;5.63;1.92;;;22.30;99.90;;;;;;5055622;28;20033;-73
2023/06/26 16:26:40;;;;;;;4.22;1.30;;;22.20;99.70;;;;;;5071256;28;20040;-74
2023/06/26 16:29:06;;;;;;;3.85;1.27;;;22.00;99.60;;;;;;5037597;28;20056;-73
2023/06/26 16:31:31;;;;;;;4.07;1.20;;;22.00;99.70;;;;;;5037332;28;20056;-73
2023/06/26 16:33:57;;;;;;;5.63;1.25;;;22.20;99.60;;;;;;5054355;28;20045;-74
2023/06/26 16:36:23;;;;;;;7.72;1.30;;;22.10;98.60;;;;;;5037053;28;20047;-73
2023/06/26 16:38:48;;;;;;;5.57;1.40;;;21.80;99.00;;;;;;5036966;28;20076;-74
2023/06/26 16:41:14;;;;;;;4.05;1.40;;;21.90;99.20;;;;;;5036763;28;20123;-74
2023/06/26 16:43:40;;;;;;;5.63;1.40;;;21.90;99.50;;;;;;5053598;28;20033;-79
2023/06/26 16:46:05;;;;;;;9.15;1.45;;;22.00;99.10;;;;;;5070377;28;20037;-74
2023/06/26 16:48:31;;;;;;;6.47;1.67;;;21.80;99.10;;;;;;5070121;28;20063;-75
2023/06/26 16:50:57;;;;;;;5.43;1.55;;;21.80;99.50;;;;;;5036921;28;20200;-73
2023/06/26 16:53:22;;;;;;;4.10;1.40;;;22.00;99.90;;;;;;5055009;28;20496;-74
2023/06/26 16:55:48;;;;;;;5.22;1.65;;;22.10;99.50;;;;;;5053366;28;20086;-74
2023/06/26 16:58:14;;;;;;;5.40;1.35;;;22.10;99.20;;;;;;5069739;28;20033;-75
2023/06/26 17:00:40;;;;;;;5.95;1.70;;;22.10;99.20;;;;;;5036723;28;20041;-73
2023/06/26 17:03:06;;;;;;;6.43;1.30;;;22.20;99.40;;;;;;5037036;28;20527;-74
2023/06/26 17:05:32;;;;;;;5.32;1.20;;;22.10;99.10;;;;;;5070365;28;20036;-74
2023/06/26 17:07:58;;;;;;;4.22;1.42;;;22.20;99.30;;;;;;5070591;28;20043;-74
2023/06/26 17:10:23;;;;;;;6.07;1.80;;;22.20;99.30;;;;;;5036629;28;20044;-75
2023/06/26 17:12:49;;;;;;;8.93;1.60;;;21.80;99.10;;;;;;5036739;28;20039;-75
2023/06/26 17:15:15;;;;;;;5.38;1.40;;;21.60;99.40;;;;;;5053591;28;20049;-73
2023/06/26 17:17:41;;;;;;;4.47;1.08;;;21.70;99.70;;;;;;5053438;28;20040;-73
2023/06/26 17:20:08;;;;;;;5.20;1.20;;;21.70;99.70;;;;;;5036359;28;20398;-74
2023/06/26 17:22:34;;;;;;;6.38;1.58;;;21.70;99.70;;;;;;5035652;28;20490;-73
2023/06/26 17:25:04;;;;;;;4.65;1.23;;;21.40;99.40;;;;;;5069970;28;20123;-74
2023/06/26 17:27:30;;;;;;;6.28;1.63;;;21.40;99.80;;;;;;5036754;28;20088;-74
2023/06/26 17:29:56;;;;;;;5.57;1.70;;;21.40;99.90;;;;;;5053553;28;20108;-73
2023/06/26 17:32:22;;;;;;;5.18;1.20;;;21.50;99.80;;;;;;5036538;28;20056;-74
2023/06/26 17:34:49;;;;;;;4.50;1.50;;;21.60;99.60;;;;;;5054195;28;20033;-75
2023/06/26 17:37:14;;;;;;;6.90;1.40;;;21.60;99.50;;;;;;5036422;28;20453;-75
2023/06/26 17:39:40;;;;;;;7.10;1.67;;;21.40;99.40;;;;;;5036127;28;20077;-73
2023/06/26 17:42:06;;;;;;;4.57;1.40;;;21.50;99.80;;;;;;5036787;28;20029;-73
2023/06/26 17:44:32;;;;;;;5.32;1.40;;;21.40;99.80;;;;;;5053285;28;20071;-74
2023/06/26 17:46:57;;;;;;;4.47;1.35;;;21.40;99.60;;;;;;5035894;28;20068;-74
2023/06/26 17:49:23;;;;;;;5.03;1.33;;;21.10;99.00;;;;;;5036096;28;20041;-73
2023/06/26 17:51:49;;;;;;;7.72;1.88;;;21.10;99.50;;;;;;5036254;28;20052;-73
2023/06/26 17:54:16;;;;;;;4.28;1.23;;;21.10;99.80;;;;;;5035859;28;20051;-75
2023/06/26 17:56:44;;;;;;;4.43;1.20;;;21.20;99.90;;;;;;5035779;28;20049;-74
2023/06/26 17:59:11;;;;;;;6.25;1.48;;;21.10;99.80;;;;;;5052518;28;20397;-74
2023/06/26 18:01:37;;;;;;;4.40;1.23;;;21.10;99.90;;;;;;5035719;28;20041;-74
2023/06/26 18:04:03;;;;;;;6.00;1.50;;;20.90;99.90;;;;;;5052198;28;20120;-74
2023/06/26 18:06:29;;;;;;;5.20;1.25;;;21.10;99.90;;;;;;5035743;28;20076;-76
2023/06/26 18:08:54;;;;;;;4.88;1.27;;;21.10;99.90;;;;;;5052175;28;20454;-75
2023/06/26 18:11:20;;;;;;;5.28;1.20;;;21.10;99.80;;;;;;5069077;28;20055;-74
2023/06/26 18:13:46;;;;;;;6.15;1.25;;;21.20;99.70;;;;;;5035948;28;20041;-73
2023/06/26 18:16:11;;;;;;;7.20;1.65;;;21.30;99.60;;;;;;5035632;28;20083;-74
2023/06/26 18:18:40;;;;;;;4.07;1.20;;;21.20;99.10;;;;;;5035448;28;20041;-75
2023/06/26 18:21:06;;;;;;;4.45;1.10;;;21.20;99.20;;;;;;5035605;28;20041;-75